Archibald, Louisiana
Current Conditions -  °F | °C
As of 3:53 AM on Friday 31 Oct 2014 (Local Time) from KMLU Reporting Station
Clear Clear  
Wind Chill: 53°   Ceiling: Unl
Heat Index: 53°   Visibility: 10mi
Dew Point: 46°   Wind: 5mph
Humidity: 77%   Direction: 320°NW
Pressure: 30.05"   Gusts: NA
Location:  32.35°N, 91.78°W
Report Text: KMLU 310853Z AUTO 32004KT 10SM CLR 12/08 A3005 RMK AO2 SLP174 T01170078 58008
Loading
Personal Weather Stations






























Interactive Weather Map
Tropical Storm Tracking
New forecast layout! Learn more

10-Day Weather Forecast

Advertisements
Track Severe Weather on mobile